Union Center, New Jersey
Current Conditions -  °F | °C
As of 12:51 PM on Monday 24 Nov 2014 (Local Time) from KEWR Reporting Station
Broken Clouds Broken Clouds  
Wind Chill: 72°   Ceiling: 3500
Heat Index: 72°   Visibility: 10mi
Dew Point: 58°   Wind: 16mph
Humidity: 61%   Direction: 210°SSW
Pressure: 29.59"   Gusts: 23mph
Location:  40.6941°N, 74.2694°W
Report Text: KEWR 241751Z 21014G20KT 10SM BKN035 22/14 A2959 RMK AO2 PK WND 19027/1714 SLP020 10222 20164 60001 T02220144 57027 $
Loading
Personal Weather Stations






























Interactive Weather Map New forecast layout! Learn more

10-Day Weather Forecast

Advertisements
Track Severe Weather on mobile